createdAt,value
2023-02-25T00:00:19.555Z,5.31
2023-02-25T00:02:50.145Z,5.32
2023-02-25T00:05:19.928Z,5.42
2023-02-25T00:07:49.028Z,5.37
2023-02-25T00:10:20.639Z,5.45
2023-02-25T00:12:49.641Z,5.50
2023-02-25T00:15:18.716Z,5.59
2023-02-25T00:17:50.058Z,5.70
2023-02-25T00:20:21.760Z,5.76
2023-02-25T00:22:50.784Z,5.83
2023-02-25T00:25:21.166Z,5.89
2023-02-25T00:27:50.226Z,5.95
2023-02-25T00:30:19.337Z,5.92
2023-02-25T00:32:48.330Z,5.93
2023-02-25T00:35:17.518Z,5.89
2023-02-25T00:37:46.379Z,5.88
2023-02-25T00:40:16.029Z,5.92
2023-02-25T00:42:46.379Z,5.97
2023-02-25T00:45:15.470Z,5.99
2023-02-25T00:47:44.445Z,5.99
2023-02-25T00:50:14.586Z,5.99
2023-02-25T00:52:43.452Z,6.02
2023-02-25T00:55:12.534Z,6.02
2023-02-25T00:57:43.401Z,6.09
2023-02-25T01:00:17.271Z,6.13
2023-02-25T01:02:47.269Z,6.21
2023-02-25T01:05:17.168Z,6.26
2023-02-25T01:07:47.174Z,6.23
2023-02-25T01:10:16.271Z,6.26
2023-02-25T01:12:45.272Z,6.25
2023-02-25T01:15:15.937Z,6.25
2023-02-25T01:17:44.863Z,6.25
2023-02-25T01:20:14.191Z,6.22
2023-02-25T01:22:43.164Z,6.16
2023-02-25T01:25:16.569Z,6.15
2023-02-25T01:27:45.522Z,6.15
2023-02-25T01:30:16.084Z,6.18
2023-02-25T01:32:45.280Z,6.13
2023-02-25T01:35:14.708Z,6.04
2023-02-25T01:37:44.130Z,6.09
2023-02-25T01:40:17.339Z,6.06
2023-02-25T01:42:47.627Z,6.11
2023-02-25T01:45:31.649Z,6.08
2023-02-25T01:48:11.047Z,6.00
2023-02-25T01:50:48.313Z,6.07
2023-02-25T01:53:21.437Z,5.98
2023-02-25T01:55:50.279Z,6.07
2023-02-25T01:58:20.152Z,5.99
2023-02-25T02:00:55.758Z,6.05
2023-02-25T02:03:28.460Z,6.10
2023-02-25T02:06:04.570Z,6.11
2023-02-25T02:08:36.046Z,6.14
2023-02-25T02:11:06.420Z,6.22
2023-02-25T02:13:38.779Z,6.24
2023-02-25T02:16:22.325Z,6.21
2023-02-25T02:18:57.580Z,6.23
2023-02-25T02:21:56.578Z,6.21
2023-02-25T02:25:00.294Z,6.10
2023-02-25T02:27:43.877Z,6.11
2023-02-25T02:30:41.186Z,6.15
2023-02-25T02:33:19.972Z,6.11
2023-02-25T02:35:57.382Z,6.07
2023-02-25T02:38:37.439Z,6.13
2023-02-25T02:41:12.706Z,6.08
2023-02-25T02:43:47.324Z,6.08
2023-02-25T02:46:22.902Z,5.93
2023-02-25T02:48:57.996Z,6.04
2023-02-25T02:51:35.841Z,6.00
2023-02-25T02:54:07.981Z,5.98
2023-02-25T02:56:40.574Z,5.92
2023-02-25T02:59:13.077Z,5.98
2023-02-25T03:01:47.909Z,5.98
2023-02-25T03:04:23.572Z,5.86
2023-02-25T03:06:56.550Z,5.90
2023-02-25T03:09:33.393Z,5.82
2023-02-25T03:12:02.687Z,5.68
2023-02-25T03:14:35.158Z,5.58
2023-02-25T03:17:09.047Z,5.59
2023-02-25T03:19:43.952Z,5.62
2023-02-25T03:22:16.955Z,5.60
2023-02-25T03:24:56.471Z,5.47
2023-02-25T03:27:29.845Z,5.59
2023-02-25T03:30:12.896Z,5.57
2023-02-25T03:32:45.093Z,5.50
2023-02-25T03:35:19.377Z,5.58
2023-02-25T03:38:07.802Z,5.55
2023-02-25T03:40:39.411Z,5.60
2023-02-25T03:43:14.862Z,5.64
2023-02-25T03:45:47.951Z,5.70
2023-02-25T03:48:19.676Z,5.68
2023-02-25T03:50:55.968Z,5.68
2023-02-25T03:53:25.019Z,5.63
2023-02-25T03:56:11.441Z,5.66
2023-02-25T03:58:44.219Z,5.40
2023-02-25T04:01:17.428Z,5.44
2023-02-25T04:03:46.612Z,5.46
2023-02-25T04:06:22.553Z,5.17
2023-02-25T04:08:52.890Z,5.36
2023-02-25T04:11:21.996Z,5.17
2023-02-25T04:13:51.470Z,5.32
2023-02-25T04:16:21.393Z,5.32
2023-02-25T04:18:50.667Z,5.39
2023-02-25T04:21:30.590Z,5.25
2023-02-25T04:24:01.288Z,5.20
2023-02-25T04:26:31.260Z,5.24
2023-02-25T04:29:00.327Z,5.35
2023-02-25T04:31:29.532Z,5.24
2023-02-25T04:33:58.501Z,5.40
2023-02-25T04:36:32.770Z,5.41
2023-02-25T04:39:03.798Z,5.45
2023-02-25T04:41:34.426Z,5.31
2023-02-25T04:44:05.348Z,5.42
2023-02-25T04:46:35.778Z,5.31
2023-02-25T04:49:05.763Z,5.35
2023-02-25T04:51:36.877Z,5.32
2023-02-25T04:54:06.306Z,5.42
2023-02-25T04:56:35.320Z,5.36
2023-02-25T04:59:04.374Z,5.43
2023-02-25T05:01:34.078Z,5.42
2023-02-25T05:04:03.094Z,5.29
2023-02-25T05:06:32.546Z,5.35
2023-02-25T05:09:03.159Z,5.39
2023-02-25T05:11:33.039Z,5.51
2023-02-25T05:14:02.064Z,5.55
2023-02-25T05:16:31.160Z,5.44
2023-02-25T05:19:00.242Z,5.62
2023-02-25T05:21:32.564Z,5.52
2023-02-25T05:24:03.007Z,5.58
2023-02-25T05:26:32.454Z,5.65
2023-02-25T05:29:01.430Z,5.69
2023-02-25T05:31:30.637Z,5.75
2023-02-25T05:33:59.746Z,5.81
2023-02-25T05:36:30.086Z,5.90
2023-02-25T05:39:03.067Z,6.00
2023-02-25T05:41:34.911Z,5.93
2023-02-25T05:44:06.206Z,6.03
2023-02-25T05:46:35.622Z,6.13
2023-02-25T05:49:04.978Z,6.27
2023-02-25T05:51:34.053Z,6.28
2023-02-25T05:54:03.240Z,6.39
2023-02-25T05:56:33.610Z,6.44
2023-02-25T05:59:02.528Z,6.51
2023-02-25T06:01:31.952Z,6.64
2023-02-25T06:04:01.448Z,6.74
2023-02-25T06:06:32.198Z,6.81
2023-02-25T06:09:01.400Z,6.92
2023-02-25T06:11:33.419Z,6.98
2023-02-25T06:14:03.828Z,7.16
2023-02-25T06:16:33.287Z,7.25
2023-02-25T06:19:03.061Z,7.35
2023-02-25T06:21:32.547Z,7.44
2023-02-25T06:24:04.153Z,7.40
2023-02-25T06:26:42.024Z,7.51
2023-02-25T06:29:11.417Z,7.67
2023-02-25T06:31:40.514Z,7.76
2023-02-25T06:34:09.650Z,7.88
2023-02-25T06:36:38.700Z,7.70
2023-02-25T06:39:08.323Z,7.82
2023-02-25T06:41:38.955Z,7.88
2023-02-25T06:44:07.946Z,8.03
2023-02-25T06:46:37.129Z,8.01
2023-02-25T06:49:06.201Z,8.30
2023-02-25T06:51:35.499Z,8.14
2023-02-25T06:54:06.095Z,8.13
2023-02-25T06:56:35.221Z,8.13
2023-02-25T06:59:05.582Z,8.15
2023-02-25T07:01:34.694Z,8.26
2023-02-25T07:04:03.858Z,8.30
2023-02-25T07:06:33.263Z,8.46
2023-02-25T07:09:02.384Z,8.54
2023-02-25T07:11:34.816Z,8.58
2023-02-25T07:14:07.004Z,8.69
2023-02-25T07:16:36.008Z,8.80
2023-02-25T07:19:05.070Z,8.91
2023-02-25T07:21:34.147Z,9.03
2023-02-25T07:24:03.183Z,9.05
2023-02-25T07:26:32.236Z,9.28
2023-02-25T07:29:01.729Z,9.46
2023-02-25T07:31:32.381Z,9.55
2023-02-25T07:34:03.801Z,9.58
2023-02-25T07:36:33.696Z,9.81
2023-02-25T07:39:04.422Z,9.74
2023-02-25T07:41:33.864Z,10.00
2023-02-25T07:44:05.868Z,9.97
2023-02-25T07:46:36.750Z,10.36
2023-02-25T07:49:05.919Z,10.31
2023-02-25T07:51:35.039Z,10.38
2023-02-25T07:54:04.148Z,10.48
2023-02-25T07:56:33.607Z,10.43
2023-02-25T07:59:02.736Z,10.66
2023-02-25T08:01:35.009Z,10.75
2023-02-25T08:04:10.651Z,10.91
2023-02-25T08:06:42.785Z,10.98
2023-02-25T08:09:12.717Z,11.20
2023-02-25T08:11:42.982Z,11.30
2023-02-25T08:14:12.380Z,11.56
2023-02-25T08:16:41.760Z,11.84
2023-02-25T08:19:12.185Z,11.98
2023-02-25T08:21:41.657Z,12.10
2023-02-25T08:24:11.273Z,12.29
2023-02-25T08:26:41.495Z,12.47
2023-02-25T08:29:10.697Z,12.59
2023-02-25T08:31:39.879Z,12.65
2023-02-25T08:34:09.270Z,12.67
2023-02-25T08:36:39.978Z,12.77
2023-02-25T08:39:09.344Z,12.85
2023-02-25T08:41:39.380Z,12.86
2023-02-25T08:44:08.567Z,12.84
2023-02-25T08:46:40.626Z,12.73
2023-02-25T08:49:09.800Z,12.69
2023-02-25T08:51:41.069Z,12.53
2023-02-25T08:54:14.076Z,12.60
2023-02-25T08:56:44.764Z,12.61
2023-02-25T08:59:16.424Z,12.69
2023-02-25T09:01:49.359Z,12.61
2023-02-25T09:04:20.333Z,12.56
2023-02-25T09:06:52.089Z,12.46
2023-02-25T09:09:22.223Z,12.59
2023-02-25T09:11:51.806Z,12.49
2023-02-25T09:14:21.589Z,12.42
2023-02-25T09:16:50.744Z,12.43
2023-02-25T09:19:21.003Z,12.49
2023-02-25T09:21:51.641Z,12.48
2023-02-25T09:24:20.818Z,12.56
2023-02-25T09:26:49.868Z,12.56
2023-02-25T09:29:19.162Z,12.61
2023-02-25T09:31:48.438Z,12.63
2023-02-25T09:34:18.479Z,12.65
2023-02-25T09:36:47.753Z,12.73
2023-02-25T09:39:18.172Z,12.81
2023-02-25T09:41:52.894Z,12.82
2023-02-25T09:44:28.599Z,12.91
2023-02-25T09:47:03.760Z,12.95
2023-02-25T09:49:37.814Z,13.05
2023-02-25T09:52:14.241Z,13.05
2023-02-25T09:54:48.015Z,12.99
2023-02-25T09:57:20.864Z,12.97
2023-02-25T09:59:52.309Z,12.93
2023-02-25T10:02:28.854Z,12.98
2023-02-25T10:05:15.920Z,12.91
2023-02-25T10:07:59.383Z,12.98
2023-02-25T10:10:39.830Z,13.02
2023-02-25T10:13:21.924Z,13.02
2023-02-25T10:16:00.522Z,13.04
2023-02-25T10:18:46.397Z,13.12
2023-02-25T10:21:28.498Z,13.20
2023-02-25T10:24:12.798Z,13.10
2023-02-25T10:26:46.836Z,13.13
2023-02-25T10:29:29.711Z,13.15
2023-02-25T10:32:01.436Z,13.22
2023-02-25T10:34:33.456Z,13.22
2023-02-25T10:37:02.509Z,13.26
2023-02-25T10:39:32.131Z,13.22
2023-02-25T10:42:02.691Z,13.25
2023-02-25T10:44:31.795Z,13.24
2023-02-25T10:47:05.309Z,13.33
2023-02-25T10:49:38.730Z,13.34
2023-02-25T10:52:15.985Z,13.33
2023-02-25T10:54:50.492Z,13.36
2023-02-25T10:57:27.756Z,13.38
2023-02-25T11:00:02.248Z,13.50
2023-02-25T11:02:39.141Z,13.57
2023-02-25T11:05:08.622Z,13.66
2023-02-25T11:07:42.969Z,13.67
2023-02-25T11:10:17.466Z,13.75
2023-02-25T11:12:52.735Z,13.79
2023-02-25T11:15:44.664Z,13.91
2023-02-25T11:18:22.322Z,14.06
2023-02-25T11:20:56.069Z,14.02
2023-02-25T11:23:30.403Z,14.07
2023-02-25T11:25:59.830Z,14.29
2023-02-25T11:28:34.568Z,14.41
2023-02-25T11:31:12.297Z,14.42
2023-02-25T11:33:45.410Z,14.47
2023-02-25T11:36:14.660Z,14.48
2023-02-25T11:38:44.546Z,14.51
2023-02-25T11:41:19.271Z,14.50
2023-02-25T11:43:54.513Z,14.56
2023-02-25T11:46:28.369Z,14.61
2023-02-25T11:49:03.665Z,14.70
2023-02-25T11:51:39.007Z,14.70
2023-02-25T11:54:24.143Z,14.70
2023-02-25T11:56:59.065Z,14.63
2023-02-25T11:59:37.377Z,14.67
2023-02-25T12:02:25.542Z,14.70
2023-02-25T12:05:27.282Z,14.72
2023-02-25T12:08:13.813Z,14.74
2023-02-25T12:11:09.114Z,14.79
2023-02-25T12:14:15.459Z,14.82
2023-02-25T12:17:28.467Z,14.81
2023-02-25T12:20:26.772Z,14.83
2023-02-25T12:23:27.451Z,14.95
2023-02-25T12:26:02.141Z,14.96
2023-02-25T12:28:53.593Z,14.95
2023-02-25T12:31:55.366Z,15.08
2023-02-25T12:34:46.233Z,15.14
2023-02-25T12:37:36.232Z,15.14
2023-02-25T12:40:21.977Z,15.17
2023-02-25T12:43:00.533Z,15.21
2023-02-25T12:45:44.459Z,15.15
2023-02-25T12:49:01.275Z,15.18
2023-02-25T12:51:52.318Z,15.11
2023-02-25T12:54:46.793Z,15.15
2023-02-25T12:57:33.293Z,15.14
2023-02-25T13:00:24.129Z,15.16
2023-02-25T13:03:08.353Z,15.17
2023-02-25T13:05:57.441Z,15.20
2023-02-25T13:08:40.745Z,15.25
2023-02-25T13:11:24.050Z,15.22
2023-02-25T13:14:32.097Z,15.17
2023-02-25T13:17:22.980Z,15.22
2023-02-25T13:20:38.008Z,15.24
2023-02-25T13:23:28.487Z,15.25
2023-02-25T13:26:10.888Z,15.17
2023-02-25T13:29:17.916Z,15.19
2023-02-25T13:31:53.223Z,15.15
2023-02-25T13:34:33.656Z,15.12
2023-02-25T13:37:19.861Z,15.05
2023-02-25T13:40:06.963Z,14.98
2023-02-25T13:42:54.682Z,15.05
2023-02-25T13:45:51.059Z,15.00
2023-02-25T13:48:51.666Z,14.93
2023-02-25T13:52:01.278Z,14.83
2023-02-25T13:54:52.293Z,14.71
2023-02-25T13:57:41.871Z,14.53
2023-02-25T14:00:46.963Z,14.52
2023-02-25T14:03:49.371Z,14.53
2023-02-25T14:06:37.117Z,14.61
2023-02-25T14:09:32.561Z,14.67
2023-02-25T14:12:13.180Z,14.67
2023-02-25T14:15:17.945Z,14.76
2023-02-25T14:18:22.653Z,14.90
2023-02-25T14:21:04.570Z,14.93
2023-02-25T14:23:46.090Z,15.01
2023-02-25T14:26:33.795Z,15.07
2023-02-25T14:29:18.432Z,15.07
2023-02-25T14:32:15.377Z,14.99
2023-02-25T14:34:56.349Z,14.97
2023-02-25T14:37:38.058Z,14.94
2023-02-25T14:40:25.205Z,14.94
2023-02-25T14:43:20.414Z,14.93
2023-02-25T14:45:56.550Z,14.97
2023-02-25T14:48:31.889Z,14.96
2023-02-25T14:51:35.466Z,14.95
2023-02-25T14:54:38.691Z,14.93
2023-02-25T14:57:40.698Z,14.87
2023-02-25T15:00:37.045Z,14.84
2023-02-25T15:03:28.900Z,14.82
2023-02-25T15:06:08.401Z,14.82
2023-02-25T15:09:04.286Z,14.83
2023-02-25T15:11:46.496Z,14.80
2023-02-25T15:14:52.279Z,14.76
2023-02-25T15:18:15.148Z,14.78
2023-02-25T15:20:44.943Z,14.84
2023-02-25T15:23:16.739Z,14.85
2023-02-25T15:25:50.068Z,14.88
2023-02-25T15:28:44.558Z,14.85
2023-02-25T15:31:39.064Z,14.81
2023-02-25T15:34:35.521Z,14.90
2023-02-25T15:37:23.408Z,14.73
2023-02-25T15:39:56.461Z,14.78
2023-02-25T15:42:49.744Z,14.76
2023-02-25T15:45:41.350Z,14.75
2023-02-25T15:48:33.931Z,14.71
2023-02-25T15:51:06.626Z,14.69
2023-02-25T15:53:41.685Z,14.60
2023-02-25T15:56:32.565Z,14.68
2023-02-25T15:59:03.790Z,14.64
2023-02-25T16:01:46.313Z,14.58
2023-02-25T16:04:46.001Z,14.58
2023-02-25T16:07:17.874Z,14.53
2023-02-25T16:09:53.319Z,14.41
2023-02-25T16:12:23.927Z,14.42
2023-02-25T16:14:54.313Z,14.41
2023-02-25T16:17:28.790Z,14.42
2023-02-25T16:20:01.619Z,14.41
2023-02-25T16:22:32.954Z,14.44
2023-02-25T16:25:03.369Z,14.39
2023-02-25T16:27:55.603Z,14.39
2023-02-25T16:30:32.621Z,14.26
2023-02-25T16:33:14.509Z,14.28
2023-02-25T16:35:55.360Z,14.22
2023-02-25T16:38:38.037Z,14.15
2023-02-25T16:41:08.583Z,14.11
2023-02-25T16:43:39.566Z,14.06
2023-02-25T16:46:11.226Z,14.08
2023-02-25T16:48:50.478Z,14.07
2023-02-25T16:51:26.300Z,14.07
2023-02-25T16:54:00.126Z,14.07
2023-02-25T16:56:36.566Z,14.10
2023-02-25T16:59:08.913Z,13.98
2023-02-25T17:01:40.104Z,13.98
2023-02-25T17:04:19.962Z,13.92
2023-02-25T17:07:08.604Z,13.95
2023-02-25T17:09:37.940Z,14.00
2023-02-25T17:12:07.174Z,13.94
2023-02-25T17:14:37.424Z,13.95
2023-02-25T17:17:06.651Z,13.87
2023-02-25T17:19:37.159Z,13.85
2023-02-25T17:22:07.134Z,13.92
2023-02-25T17:24:36.683Z,13.91
2023-02-25T17:27:13.107Z,13.91
2023-02-25T17:29:43.567Z,13.80
2023-02-25T17:32:23.573Z,13.87
2023-02-25T17:34:57.391Z,13.78
2023-02-25T17:37:29.093Z,13.74
2023-02-25T17:39:59.213Z,13.79
2023-02-25T17:42:32.962Z,13.74
2023-02-25T17:45:03.014Z,13.76
2023-02-25T17:47:35.660Z,13.76
2023-02-25T17:50:28.177Z,13.66
2023-02-25T17:52:58.593Z,13.69
2023-02-25T17:55:31.218Z,13.75
2023-02-25T17:58:02.130Z,13.76
2023-02-25T18:00:33.745Z,13.72
2023-02-25T18:03:17.115Z,13.70
2023-02-25T18:05:52.487Z,13.65
2023-02-25T18:08:23.475Z,13.62
2023-02-25T18:11:20.029Z,13.66
2023-02-25T18:13:49.263Z,13.61
2023-02-25T18:16:40.519Z,13.71
2023-02-25T18:19:38.936Z,13.71
2023-02-25T18:22:25.427Z,13.67
2023-02-25T18:24:55.822Z,13.71
2023-02-25T18:27:29.547Z,13.70
2023-02-25T18:30:01.999Z,13.68
2023-02-25T18:32:33.327Z,13.68
2023-02-25T18:35:02.521Z,13.68
2023-02-25T18:37:35.193Z,13.68
2023-02-25T18:40:04.357Z,13.66
2023-02-25T18:42:33.602Z,13.69
2023-02-25T18:45:02.654Z,13.69
2023-02-25T18:47:32.025Z,13.69
2023-02-25T18:50:01.108Z,13.71
2023-02-25T18:52:33.762Z,13.74
2023-02-25T18:55:02.923Z,13.66
2023-02-25T18:57:32.179Z,13.67
2023-02-25T19:00:01.390Z,13.68
2023-02-25T19:02:34.315Z,13.69
2023-02-25T19:05:04.323Z,13.67
2023-02-25T19:07:36.442Z,13.66
2023-02-25T19:10:07.136Z,13.63
2023-02-25T19:12:36.998Z,13.64
2023-02-25T19:15:08.947Z,13.67
2023-02-25T19:17:39.120Z,13.69
2023-02-25T19:20:11.694Z,13.69
2023-02-25T19:22:44.892Z,13.66
2023-02-25T19:25:21.555Z,13.70
2023-02-25T19:27:51.289Z,13.71
2023-02-25T19:30:22.777Z,13.70
2023-02-25T19:32:52.249Z,13.72
2023-02-25T19:35:21.243Z,13.76
2023-02-25T19:37:51.729Z,13.64
2023-02-25T19:40:21.088Z,13.69
2023-02-25T19:42:50.414Z,13.67
2023-02-25T19:45:22.230Z,13.71
2023-02-25T19:47:51.851Z,13.71
2023-02-25T19:50:25.041Z,13.70
2023-02-25T19:52:55.827Z,13.68
2023-02-25T19:55:24.932Z,13.62
2023-02-25T19:57:54.139Z,13.63
2023-02-25T20:00:26.097Z,13.63
2023-02-25T20:02:56.486Z,13.59
2023-02-25T20:05:26.232Z,13.52
2023-02-25T20:07:56.968Z,13.62
2023-02-25T20:10:26.074Z,13.64
2023-02-25T20:12:55.064Z,13.64
2023-02-25T20:15:24.170Z,13.59
2023-02-25T20:17:55.280Z,13.67
2023-02-25T20:20:24.402Z,13.66
2023-02-25T20:22:53.623Z,13.65
2023-02-25T20:25:24.229Z,13.63
2023-02-25T20:27:54.484Z,13.55
2023-02-25T20:30:24.175Z,13.60
2023-02-25T20:32:53.254Z,13.60
2023-02-25T20:35:26.289Z,13.56
2023-02-25T20:38:10.510Z,13.56
2023-02-25T20:40:41.162Z,13.47
2023-02-25T20:43:11.786Z,13.46
2023-02-25T20:45:41.253Z,13.48
2023-02-25T20:48:26.885Z,13.51
2023-02-25T20:50:56.257Z,13.35
2023-02-25T20:53:25.769Z,13.41
2023-02-25T20:55:58.618Z,13.40
2023-02-25T20:58:27.728Z,13.44
2023-02-25T21:00:57.496Z,13.44
2023-02-25T21:03:26.440Z,13.45
2023-02-25T21:05:55.528Z,13.47
2023-02-25T21:08:24.520Z,13.44
2023-02-25T21:10:53.848Z,13.37
2023-02-25T21:13:24.415Z,13.30
2023-02-25T21:15:53.462Z,13.38
2023-02-25T21:18:22.478Z,13.38
2023-02-25T21:20:58.211Z,13.41
2023-02-25T21:23:27.575Z,13.35
2023-02-25T21:25:56.976Z,13.35
2023-02-25T21:28:27.982Z,13.41
2023-02-25T21:31:02.513Z,13.42
2023-02-25T21:33:33.115Z,13.34
2023-02-25T21:36:02.826Z,13.37
2023-02-25T21:38:32.229Z,13.40
2023-02-25T21:41:06.934Z,13.21
2023-02-25T21:43:37.894Z,13.31
2023-02-25T21:46:11.721Z,13.34
2023-02-25T21:48:42.115Z,13.38
2023-02-25T21:51:17.461Z,13.43
2023-02-25T21:53:46.990Z,13.36
2023-02-25T21:56:17.856Z,13.36
2023-02-25T21:58:48.690Z,13.32
2023-02-25T22:01:20.856Z,13.26
2023-02-25T22:03:50.284Z,13.33
2023-02-25T22:06:19.490Z,13.24
2023-02-25T22:08:48.630Z,13.28
2023-02-25T22:11:20.311Z,13.37
2023-02-25T22:13:51.198Z,13.30
2023-02-25T22:16:21.207Z,13.36
2023-02-25T22:18:51.237Z,13.41
2023-02-25T22:21:23.534Z,13.30
2023-02-25T22:23:54.136Z,13.29
2023-02-25T22:26:25.889Z,13.41
2023-02-25T22:28:57.962Z,13.44
2023-02-25T22:31:27.953Z,13.38
2023-02-25T22:33:58.816Z,13.39
2023-02-25T22:36:28.084Z,13.36
2023-02-25T22:38:57.272Z,13.39
2023-02-25T22:41:28.325Z,13.39
2023-02-25T22:44:00.437Z,13.29
2023-02-25T22:46:31.222Z,13.36
2023-02-25T22:49:00.840Z,13.38
2023-02-25T22:51:35.644Z,13.35
2023-02-25T22:54:05.369Z,13.36
2023-02-25T22:56:34.411Z,13.30
2023-02-25T22:59:04.883Z,13.35
2023-02-25T23:01:34.964Z,13.38
2023-02-25T23:04:04.463Z,13.37
2023-02-25T23:06:43.478Z,13.37
2023-02-25T23:09:13.761Z,13.35
2023-02-25T23:11:45.147Z,13.30
2023-02-25T23:14:16.590Z,13.35
2023-02-25T23:16:47.202Z,13.37
2023-02-25T23:19:17.512Z,13.38
2023-02-25T23:21:46.519Z,13.34
2023-02-25T23:24:19.215Z,13.28
2023-02-25T23:26:50.889Z,13.27
2023-02-25T23:29:23.189Z,13.33
2023-02-25T23:31:52.384Z,13.34
2023-02-25T23:34:23.507Z,13.25
2023-02-25T23:36:56.774Z,13.24
2023-02-25T23:39:26.070Z,13.23
2023-02-25T23:41:55.263Z,13.26
2023-02-25T23:44:25.983Z,13.30
2023-02-25T23:46:55.226Z,13.30
2023-02-25T23:49:24.238Z,13.30
2023-02-25T23:51:53.240Z,13.26
2023-02-25T23:54:24.231Z,13.28
2023-02-25T23:56:53.299Z,13.24
2023-02-25T23:59:25.225Z,13.27
